Palace, Missouri
Current Conditions -  °F | °C
As of 8:58 PM on Sunday 23 Nov 2014 (Local Time) from KTBN Reporting Station
Moderate Rain Moderate Rain  
Wind Chill: 54°   Ceiling: 400
Heat Index: 54°   Visibility: 5mi
Dew Point: 54°   Wind: 5mph
Humidity: 100%   Direction: NA
Pressure: 29.28"   Gusts: NA
Location:  37.492°N, 92.1844°W
Report Text: KTBN 240258Z AUTO VRB04KT 5SM RA BR BKN004 OVC008 12/12 A2928 RMK AO2 RAB0244DZB0239E0244 BKN V OVC SLP915 P0002 60002 T01230123 58007
Loading
Personal Weather Stations






























Interactive Weather Map New forecast layout! Learn more

10-Day Weather Forecast

Advertisements
Track Severe Weather on mobile